Overview Statistics Trail Chart Weather Telemetry Raw packets
 

This is the latest recevied weather packets stored in our database for station/object IZ1HMT-3. If no packets are shown the sender has not sent any weather packets the latest 10 day(s).

<< 18 19 20 21 22 23 24 >>
Time Temp. Humidity Pressure Rain* Wind** Luminosity Snow
1788037673 26.11° C 53% 1014.9 hPa - - - -
1788032839 26.11° C 51% 1014.9 hPa - - - -
1788029215 27.78° C 46% 1014.3 hPa - - - -
1788027402 29.44° C 42% 1013.8 hPa - - - -
1788026195 30° C 43% 1013.6 hPa - - - -
1788025590 30° C 43% 1013.7 hPa - - - -
1788024986 30.56° C 44% 1013.6 hPa - - - -
1788023173 31.11° C 44% 1013.5 hPa - - - -
1788022569 31.11° C 44% 1013.5 hPa - - - -
1788021361 31.11° C 44% 1013.5 hPa - - - -
1788020757 31.67° C 43% 1013.4 hPa - - - -
1788020152 31.67° C 42% 1013.4 hPa - - - -
1788019549 32.22° C 41% 1013.4 hPa - - - -
1788018944 32.22° C 40% 1013.4 hPa - - - -
1788018340 32.22° C 40% 1013.4 hPa - - - -
1788017736 32.78° C 38% 1013.4 hPa - - - -
1788015930 32.22° C 40% 1013.8 hPa - - - -
1788014111 32.22° C 40% 1013.7 hPa - - - -
1788013507 31.67° C 40% 1013.8 hPa - - - -
1788012903 32.78° C 38% 1013.9 hPa - - - -
1788012299 33.33° C 37% 1013.9 hPa - - - -
1788011695 34.44° C 36% 1013.9 hPa - - - -
1788011090 34.44° C 36% 1014 hPa - - - -
1788010487 32.78° C 38% 1014.1 hPa - - - -
1788009278 32.22° C 37% 1014.2 hPa - - - -

* Rain since midnight (hover to see other rain measurements)
** Current wind speed in m/s (hover to see current wind gust speed)